Time;durP1;ratioP1;P1;durP2;ratioP2;P2;SDS_P1;SDS_P2;PMS_P1;PMS_P2;Temp;Humidity;BMP_temperature;BMP_pressure;BME280_temperature;BME280_humidity;BME280_pressure;Samples;Min_cycle;Max_cycle;Signal;HPM_P1;HPM_P2
2022/11/23 00:01:28;;;;;;;14.85;9.25;;;;;;;2.25;81.62;100472.59;1783797;80;20920;-85
2022/11/23 00:03:57;;;;;;;17.52;11.00;;;;;;;2.26;81.49;100475.56;1784196;80;20932;-83
2022/11/23 00:06:25;;;;;;;13.53;10.23;;;;;;;2.24;81.48;100477.34;1783908;80;21547;-86
2022/11/23 00:08:52;;;;;;;15.83;10.85;;;;;;;2.25;81.66;100480.36;1784125;80;20892;-84
2022/11/23 00:11:21;;;;;;;14.65;10.03;;;;;;;2.27;81.72;100479.88;1784166;80;21121;-85
2022/11/23 00:13:48;;;;;;;13.80;10.72;;;;;;;2.30;81.69;100487.98;1783892;80;21440;-85
2022/11/23 00:16:23;;;;;;;22.17;12.15;;;;;;;2.30;81.58;100497.88;1783983;80;20975;-85
2022/11/23 00:18:53;;;;;;;16.75;11.33;;;;;;;2.32;81.67;100505.16;1784085;80;20932;-85
2022/11/23 00:21:20;;;;;;;12.75;8.93;;;;;;;2.34;81.80;100515.02;1784224;80;20869;-85
2022/11/23 00:23:47;;;;;;;10.72;8.40;;;;;;;2.35;81.67;100518.00;1783971;79;21235;-85
2022/11/23 00:26:14;;;;;;;10.78;8.05;;;;;;;2.33;81.25;100520.23;1784160;80;21003;-84
2022/11/23 00:28:41;;;;;;;12.35;8.65;;;;;;;2.24;81.12;100520.88;1785834;80;20857;-85
2022/11/23 00:31:13;;;;;;;11.10;9.08;;;;;;;2.17;81.04;100521.10;1787459;80;20880;-84
2022/11/23 00:33:40;;;;;;;10.80;8.20;;;;;;;2.09;81.10;100522.61;1786864;80;20856;-81
2022/11/23 00:36:13;;;;;;;19.00;12.53;;;;;;;2.04;81.35;100518.83;1786959;80;21105;-82
2022/11/23 00:38:42;;;;;;;23.25;14.87;;;;;;;2.05;81.43;100525.71;1786203;80;20923;-85
2022/11/23 00:41:15;;;;;;;20.72;14.98;;;;;;;2.04;81.35;100527.88;1786659;79;20806;-84
2022/11/23 00:43:43;;;;;;;18.32;14.55;;;;;;;2.05;81.49;100540.39;1778739;80;20853;-85
2022/11/23 00:46:21;;;;;;;15.03;10.20;;;;;;;2.07;81.47;100543.34;1776337;80;20877;-85
2022/11/23 00:48:49;;;;;;;13.85;9.60;;;;;;;2.06;81.44;100537.73;1775933;80;21149;-84
2022/11/23 00:51:20;;;;;;;13.22;9.80;;;;;;;2.07;81.50;100547.66;1775416;80;20972;-83
2022/11/23 00:53:52;;;;;;;13.38;9.60;;;;;;;2.07;81.56;100541.20;1775501;80;20921;-85
2022/11/23 00:56:19;;;;;;;13.40;9.43;;;;;;;2.05;81.52;100544.27;1775264;80;20980;-84
2022/11/23 00:58:49;;;;;;;11.97;8.90;;;;;;;2.04;81.60;100545.14;1775607;80;20999;-85
2022/11/23 01:01:17;;;;;;;14.07;9.63;;;;;;;2.05;81.81;100543.81;1775386;80;21179;-85
2022/11/23 01:03:47;;;;;;;14.78;9.85;;;;;;;2.11;81.79;100544.09;1775337;80;20967;-85
2022/11/23 01:06:18;;;;;;;13.15;9.10;;;;;;;2.13;81.69;100547.94;1775421;80;21015;-85
2022/11/23 01:08:50;;;;;;;10.72;8.43;;;;;;;2.11;81.65;100550.55;1777597;80;20912;-85
2022/11/23 01:11:16;;;;;;;10.45;8.88;;;;;;;2.09;81.54;100556.23;1778359;80;20959;-86
2022/11/23 01:13:43;;;;;;;12.00;8.58;;;;;;;2.10;81.60;100544.14;1778265;80;21160;-84
2022/11/23 01:16:18;;;;;;;9.98;7.33;;;;;;;2.10;81.12;100548.87;1776527;80;20916;-84
2022/11/23 01:18:45;;;;;;;;;;;;;;;2.05;80.43;100560.62;1778828;80;20975;-83
2022/11/23 01:21:12;;;;;;;10.28;7.55;;;;;;;1.98;79.83;100561.69;1775969;80;20151;-84
2022/11/23 01:23:40;;;;;;;9.03;6.58;;;;;;;1.90;80.02;100564.05;1775628;80;21374;-84
2022/11/23 01:26:08;;;;;;;10.95;7.90;;;;;;;1.87;80.22;100562.40;1775526;80;21948;-84
2022/11/23 01:28:38;;;;;;;8.53;6.83;;;;;;;1.88;80.12;100560.66;1775445;80;20912;-84
2022/11/23 01:31:14;;;;;;;10.38;8.05;;;;;;;1.88;80.00;100569.25;1775356;80;20967;-84
2022/11/23 01:33:44;;;;;;;9.88;7.12;;;;;;;1.92;80.01;100574.76;1775387;80;21070;-84
2022/11/23 01:36:18;;;;;;;10.48;7.78;;;;;;;1.94;79.92;100576.86;1776227;80;20896;-84
2022/11/23 01:38:46;;;;;;;;;;;;;;;1.97;79.71;100579.36;1778122;80;20936;-84
2022/11/23 01:41:26;;;;;;;12.60;8.05;;;;;;;1.97;79.50;100581.11;1775389;80;20294;-86
2022/11/23 01:43:53;;;;;;;11.20;7.92;;;;;;;1.96;79.31;100579.42;1781857;80;20919;-85
2022/11/23 01:46:20;;;;;;;10.25;8.80;;;;;;;1.98;78.98;100580.20;1783748;80;20983;-85
2022/11/23 01:49:02;;;;;;;10.65;8.68;;;;;;;2.01;78.92;100580.14;1783861;80;21469;-85
2022/11/23 01:51:39;;;;;;;12.95;9.33;;;;;;;2.04;79.05;100576.17;1784086;80;21893;-83
2022/11/23 01:54:30;;;;;;;9.88;7.97;;;;;;;2.07;78.84;100577.41;1785479;80;20916;-83
2022/11/23 01:57:00;;;;;;;11.48;8.90;;;;;;;2.04;78.49;100575.72;1785454;79;21022;-82
2022/11/23 01:59:27;;;;;;;12.47;9.13;;;;;;;2.02;78.86;100574.07;1784517;80;21448;-85
2022/11/23 02:01:53;;;;;;;12.23;8.68;;;;;;;2.02;78.64;100583.13;1785152;80;20861;-83
2022/11/23 02:04:29;;;;;;;10.63;8.65;;;;;;;2.01;78.79;100581.44;1786923;78;21838;-83
2022/11/23 02:06:55;;;;;;;10.75;7.72;;;;;;;2.00;78.66;100581.02;1785517;78;20936;-85
2022/11/23 02:09:22;;;;;;;12.58;8.78;;;;;;;1.95;78.44;100586.30;1784675;80;20928;-85
2022/11/23 02:11:51;;;;;;;10.43;8.20;;;;;;;1.89;78.74;100586.91;1783958;80;20935;-86
2022/11/23 02:14:17;;;;;;;9.55;7.60;;;;;;;1.87;78.87;100601.19;1783926;80;20916;-84
2022/11/23 02:16:43;;;;;;;11.38;8.03;;;;;;;1.86;79.07;100603.34;1784152;80;22146;-85
2022/11/23 02:19:27;;;;;;;10.48;7.47;;;;;;;1.85;79.10;100604.25;1784167;80;20884;-86
2022/11/23 02:21:55;;;;;;;11.22;8.35;;;;;;;1.89;78.90;100605.00;1783927;80;21461;-85
2022/11/23 02:24:34;;;;;;;11.85;8.78;;;;;;;1.88;78.88;100615.80;1783894;80;20896;-86
2022/11/23 02:27:02;;;;;;;11.45;8.95;;;;;;;1.90;78.81;100617.06;1784633;80;21386;-85
2022/11/23 02:29:29;;;;;;;14.28;9.45;;;;;;;1.94;78.97;100615.66;1783938;80;21145;-83
2022/11/23 02:31:59;;;;;;;12.15;9.10;;;;;;;1.97;78.92;100606.52;1783997;80;20919;-85
2022/11/23 02:34:26;;;;;;;10.78;8.50;;;;;;;1.97;78.68;100611.69;1784034;80;21011;-85
2022/11/23 02:36:55;;;;;;;14.87;9.68;;;;;;;1.97;78.67;100613.43;1783780;80;20971;-84
2022/11/23 02:39:43;;;;;;;15.32;10.35;;;;;;;1.99;78.83;100612.95;1784278;80;20844;-85
2022/11/23 02:42:10;;;;;;;13.38;10.03;;;;;;;2.06;78.86;100606.28;1783766;80;21151;-85
2022/11/23 02:45:11;;;;;;;14.87;10.25;;;;;;;2.10;78.55;100613.53;1784491;80;20876;-83
2022/11/23 02:47:38;;;;;;;21.62;11.97;;;;;;;2.12;78.54;100617.38;1783432;80;20932;-85
2022/11/23 02:50:06;;;;;;;19.95;11.65;;;;;;;2.12;78.58;100618.22;1783954;80;20967;-84
2022/11/23 02:52:37;;;;;;;16.25;10.40;;;;;;;2.17;78.47;100621.98;1784089;80;20998;-85
2022/11/23 02:55:04;;;;;;;16.75;11.28;;;;;;;2.19;78.39;100626.69;1783908;80;21237;-84
2022/11/23 02:57:30;;;;;;;14.75;10.58;;;;;;;2.24;78.29;100624.36;1783820;80;20868;-84
2022/11/23 02:59:57;;;;;;;14.83;10.93;;;;;;;2.28;78.13;100627.73;1784042;80;20931;-84
2022/11/23 03:02:24;;;;;;;13.13;10.20;;;;;;;2.31;77.87;100626.80;1783996;80;20936;-85
2022/11/23 03:04:52;;;;;;;14.73;10.30;;;;;;;2.34;77.82;100626.30;1784114;80;20888;-84
2022/11/23 03:07:21;;;;;;;13.48;9.65;;;;;;;2.37;77.63;100633.97;1784193;80;21175;-84
2022/11/23 03:09:50;;;;;;;13.38;9.90;;;;;;;2.39;77.62;100637.81;1784003;80;21397;-84
2022/11/23 03:12:16;;;;;;;12.90;9.38;;;;;;;2.39;77.41;100632.19;1784088;80;20908;-84
2022/11/23 03:14:43;;;;;;;14.93;10.08;;;;;;;2.38;77.26;100635.68;1784009;80;20935;-84
2022/11/23 03:17:12;;;;;;;16.17;10.40;;;;;;;2.37;77.20;100640.44;1784713;80;20943;-82
2022/11/23 03:19:41;;;;;;;11.65;9.35;;;;;;;2.36;77.29;100640.50;1784516;80;21007;-85
2022/11/23 03:22:09;;;;;;;12.73;10.08;;;;;;;2.38;77.47;100645.16;1784079;80;20919;-84
2022/11/23 03:24:37;;;;;;;12.68;10.05;;;;;;;2.40;77.34;100639.50;1786970;78;20909;-83
2022/11/23 03:27:06;;;;;;;14.95;10.98;;;;;;;2.45;77.32;100642.39;1786533;78;20935;-86
2022/11/23 03:29:34;;;;;;;13.00;9.88;;;;;;;2.47;77.00;100641.06;1785538;80;21630;-85
2022/11/23 03:32:04;;;;;;;16.52;9.78;;;;;;;2.49;77.06;100659.99;1786918;78;21132;-85
2022/11/23 03:34:31;;;;;;;13.25;10.63;;;;;;;2.50;77.05;100662.97;1785844;79;20876;-84
2022/11/23 03:36:58;;;;;;;11.70;8.58;;;;;;;2.51;76.79;100665.11;1758197;80;20903;-86
2022/11/23 03:39:27;;;;;;;13.75;10.30;;;;;;;2.52;76.79;100668.12;1784570;80;21010;-85
2022/11/23 03:42:12;;;;;;;14.28;10.80;;;;;;;2.52;76.57;100666.38;1783966;80;20892;-85
2022/11/23 03:44:39;;;;;;;14.43;9.23;;;;;;;2.52;76.43;100669.41;1776446;80;21151;-84
2022/11/23 03:47:06;;;;;;;10.93;9.13;;;;;;;2.50;76.33;100681.09;1775506;80;20936;-86
2022/11/23 03:49:34;;;;;;;11.43;8.63;;;;;;;2.49;76.23;100681.99;1775444;80;20849;-84
2022/11/23 03:52:04;;;;;;;12.10;8.78;;;;;;;2.45;76.00;100682.95;1775655;80;20885;-85
2022/11/23 03:54:32;;;;;;;14.38;9.20;;;;;;;2.40;76.06;100683.08;1775523;80;20932;-86
2022/11/23 03:57:00;;;;;;;15.60;9.95;;;;;;;2.40;76.30;100688.67;1775344;80;20928;-86
2022/11/23 03:59:27;;;;;;;12.15;9.23;;;;;;;2.41;76.35;100694.27;1775422;80;20984;-85
2022/11/23 04:01:54;;;;;;;12.58;9.03;;;;;;;2.42;76.34;100695.95;1775473;80;21019;-85
2022/11/23 04:04:22;;;;;;;13.38;9.53;;;;;;;2.43;76.51;100689.45;1775112;80;20896;-84
2022/11/23 04:06:58;;;;;;;14.38;10.50;;;;;;;2.45;76.63;100695.89;1774648;80;20923;-85
2022/11/23 04:09:27;;;;;;;12.40;10.08;;;;;;;2.47;76.41;100695.41;1775073;80;21133;-85
2022/11/23 04:12:02;;;;;;;12.75;10.48;;;;;;;2.43;76.39;100694.63;1773310;80;20932;-86
2022/11/23 04:14:31;;;;;;;12.70;10.00;;;;;;;2.44;76.46;100704.08;1775260;80;20932;-86
2022/11/23 04:16:58;;;;;;;13.83;10.80;;;;;;;2.46;76.51;100710.07;1775239;80;21078;-85
2022/11/23 04:19:25;;;;;;;13.93;10.40;;;;;;;2.46;76.63;100710.52;1775396;80;20979;-88
2022/11/23 04:21:52;;;;;;;14.18;10.78;;;;;;;2.49;76.64;100713.89;1775270;80;21291;-86
2022/11/23 04:24:19;;;;;;;15.48;11.68;;;;;;;2.52;76.59;100714.71;1775279;80;21003;-88
2022/11/23 04:26:46;;;;;;;14.43;10.20;;;;;;;2.54;76.56;100716.81;1776356;80;20999;-88
2022/11/23 04:29:15;;;;;;;11.97;8.85;;;;;;;2.54;76.41;100715.07;1776693;80;20956;-85
2022/11/23 04:31:43;;;;;;;20.90;12.53;;;;;;;2.52;76.00;100720.73;1777650;80;21307;-83
2022/11/23 04:34:11;;;;;;;15.30;10.45;;;;;;;2.50;76.05;100717.33;1777853;80;21341;-83
2022/11/23 04:36:39;;;;;;;14.87;10.72;;;;;;;2.48;76.15;100713.92;1777559;80;20888;-84
2022/11/23 04:39:06;;;;;;;13.08;8.95;;;;;;;2.48;76.24;100716.52;1775516;80;21425;-86
2022/11/23 04:41:38;;;;;;;10.93;8.50;;;;;;;2.48;76.30;100725.13;1774704;80;20980;-85
2022/11/23 04:44:05;;;;;;;12.33;8.70;;;;;;;2.48;76.25;100722.98;1776913;80;20979;-86
2022/11/23 04:46:34;;;;;;;11.73;8.25;;;;;;;2.46;76.21;100719.13;1778547;79;21077;-84
2022/11/23 04:49:03;;;;;;;11.35;8.28;;;;;;;2.44;76.24;100717.02;1777694;79;20888;-86
2022/11/23 04:51:30;;;;;;;9.23;7.60;;;;;;;2.42;76.11;100711.06;1776196;80;20968;-85
2022/11/23 04:53:56;;;;;;;12.68;7.97;;;;;;;2.41;76.17;100716.27;1775554;80;20896;-85
2022/11/23 04:56:25;;;;;;;18.50;13.83;;;;;;;2.41;76.28;100717.56;1776172;80;20928;-87
2022/11/23 04:58:52;;;;;;;13.22;8.13;;;;;;;2.41;76.33;100710.64;1776597;80;23011;-87
2022/11/23 05:01:18;;;;;;;27.70;16.27;;;;;;;2.43;76.22;100716.62;1776496;80;21034;-85
2022/11/23 05:03:47;;;;;;;15.03;10.70;;;;;;;2.44;76.29;100724.78;1772450;80;21433;-83
2022/11/23 05:06:13;;;;;;;12.33;9.83;;;;;;;2.44;76.22;100727.38;1775652;80;20940;-85
2022/11/23 05:08:43;;;;;;;11.63;7.15;;;;;;;2.43;76.22;100728.28;1775569;80;20849;-84
2022/11/23 05:11:12;;;;;;;12.25;8.40;;;;;;;2.44;76.30;100732.55;1770970;80;21174;-86
2022/11/23 05:13:38;;;;;;;12.28;8.20;;;;;;;2.47;76.43;100726.48;1775710;80;20861;-83
2022/11/23 05:16:06;;;;;;;11.10;8.45;;;;;;;2.50;76.28;100727.68;1775636;80;20963;-86
2022/11/23 05:18:35;;;;;;;11.68;8.30;;;;;;;2.51;76.23;100728.07;1775536;80;20888;-86
2022/11/23 05:21:01;;;;;;;10.50;8.48;;;;;;;2.54;76.23;100734.94;1775602;80;20936;-86
2022/11/23 05:23:30;;;;;;;13.88;8.55;;;;;;;2.56;76.22;100734.45;1775435;80;20892;-86
2022/11/23 05:25:57;;;;;;;14.20;9.65;;;;;;;2.57;76.24;100740.87;1775538;80;20983;-88
2022/11/23 05:28:25;;;;;;;17.35;11.03;;;;;;;2.57;76.18;100746.05;1775517;80;20971;-87
2022/11/23 05:30:56;;;;;;;16.12;10.58;;;;;;;2.58;76.31;100749.05;1775555;80;21335;-86
2022/11/23 05:33:23;;;;;;;14.35;9.80;;;;;;;2.61;76.44;100745.09;1775800;80;20955;-85
2022/11/23 05:35:50;;;;;;;15.05;11.00;;;;;;;2.65;76.55;100751.05;1776037;80;21243;-86
2022/11/23 05:38:18;;;;;;;18.73;11.45;;;;;;;2.63;76.50;100754.12;1776782;80;20969;-86
2022/11/23 05:40:45;;;;;;;15.68;11.10;;;;;;;2.63;76.63;100748.94;1776823;80;20905;-85
2022/11/23 05:43:13;;;;;;;19.17;11.83;;;;;;;2.64;76.89;100756.65;1777345;80;20939;-86
2022/11/23 05:45:43;;;;;;;17.12;11.28;;;;;;;2.66;77.12;100751.44;1777284;80;20889;-86
2022/11/23 05:48:11;;;;;;;24.20;15.90;;;;;;;2.64;77.23;100760.53;1776655;80;21147;-85
2022/11/23 05:50:49;;;;;;;17.85;11.50;;;;;;;2.66;77.44;100758.75;1776719;80;20940;-86
2022/11/23 05:53:21;;;;;;;13.03;10.75;;;;;;;2.69;77.54;100755.23;1776392;80;20861;-88
2022/11/23 05:58:18;;;;;;;18.62;12.47;;;;;;;2.78;77.64;100752.86;1838141;77;23500;-86
2022/11/23 06:00:46;;;;;;;16.05;11.38;;;;;;;2.73;77.77;100752.98;1801866;78;21471;-85
2022/11/23 06:03:14;;;;;;;19.52;13.05;;;;;;;2.75;77.73;100755.54;1824861;78;21161;-86
2022/11/23 06:05:41;;;;;;;16.70;11.43;;;;;;;2.76;77.69;100761.98;1827046;78;20845;-86
2022/11/23 06:08:08;;;;;;;15.05;10.75;;;;;;;2.77;77.78;100764.97;1812771;78;20950;-87
2022/11/23 06:10:35;;;;;;;17.27;10.85;;;;;;;2.78;77.73;100764.52;1808986;78;21317;-87
2022/11/23 06:13:03;;;;;;;17.48;11.57;;;;;;;2.75;77.40;100774.95;1802877;78;21452;-84
2022/11/23 06:15:31;;;;;;;16.85;11.90;;;;;;;2.73;77.44;100775.44;1809927;78;21301;-86
2022/11/23 06:18:07;;;;;;;18.50;11.25;;;;;;;2.72;77.58;100777.19;1819634;78;21385;-85
2022/11/23 06:20:39;;;;;;;17.80;10.68;;;;;;;2.74;77.66;100768.94;1812024;78;20947;-88
2022/11/23 06:23:06;;;;;;;18.92;12.88;;;;;;;2.74;77.62;100771.53;1795436;78;21328;-88
2022/11/23 06:25:34;;;;;;;16.12;12.75;;;;;;;2.74;77.59;100774.12;1824040;78;20974;-85
2022/11/23 06:28:18;;;;;;;19.67;11.38;;;;;;;2.74;77.57;100767.64;1822607;78;21272;-86
2022/11/23 06:30:51;;;;;;;18.98;12.43;;;;;;;2.74;77.70;100771.53;1822372;78;20888;-85
2022/11/23 06:33:17;;;;;;;15.72;10.98;;;;;;;2.74;77.57;100774.56;1814704;77;21794;-87
2022/11/23 06:35:55;;;;;;;17.77;11.78;;;;;;;2.73;77.49;100778.03;1824374;78;20966;-87
2022/11/23 06:38:23;;;;;;;19.85;12.03;;;;;;;2.76;77.53;100783.12;1805174;78;20943;-88
2022/11/23 06:40:57;;;;;;;24.82;13.38;;;;;;;2.79;77.64;100775.30;1817020;78;21395;-85
2022/11/23 06:43:26;;;;;;;20.17;12.65;;;;;;;2.84;77.68;100778.61;1825686;78;21006;-87
2022/11/23 06:45:54;;;;;;;21.23;12.63;;;;;;;2.88;77.62;100780.23;1825250;78;20994;-89
2022/11/23 06:48:23;;;;;;;17.62;11.75;;;;;;;2.93;77.71;100781.41;1786212;78;20900;-90
2022/11/23 06:50:50;;;;;;;29.20;18.55;;;;;;;2.97;77.71;100772.67;1777578;78;20950;-88
2022/11/23 06:53:18;;;;;;;18.40;12.47;;;;;;;2.99;77.60;100778.67;1811895;77;21146;-84
2022/11/23 06:55:46;;;;;;;20.27;13.68;;;;;;;2.99;77.50;100776.08;1823868;78;20891;-87
2022/11/23 06:58:15;;;;;;;21.65;12.98;;;;;;;2.98;77.53;100776.53;1818170;78;20880;-87
2022/11/23 07:00:42;;;;;;;17.12;11.28;;;;;;;3.01;77.56;100773.00;1811731;78;21158;-87
2022/11/23 07:03:20;;;;;;;19.50;13.22;;;;;;;3.02;77.77;100765.16;1813161;78;21077;-86
2022/11/23 07:05:49;;;;;;;19.62;13.08;;;;;;;3.05;77.76;100768.15;1810125;78;21212;-86
2022/11/23 07:08:17;;;;;;;14.55;11.57;;;;;;;3.05;77.36;100765.56;1818631;78;21337;-86
2022/11/23 07:10:44;;;;;;;18.30;12.65;;;;;;;3.02;77.40;100765.63;1820980;78;21362;-86
2022/11/23 07:13:14;;;;;;;16.67;11.68;;;;;;;3.02;77.48;100769.51;1791906;78;21574;-87
2022/11/23 07:15:42;;;;;;;19.55;11.88;;;;;;;2.99;77.51;100768.30;1812284;78;20931;-87
2022/11/23 07:18:09;;;;;;;16.45;11.90;;;;;;;2.99;77.50;100772.19;1801046;78;21405;-88
2022/11/23 07:20:41;;;;;;;20.55;12.75;;;;;;;2.98;77.08;100775.66;1801903;78;20923;-90
2022/11/23 07:23:09;;;;;;;18.02;11.70;;;;;;;2.94;77.12;100776.65;1817894;78;20922;-89
2022/11/23 07:25:37;;;;;;;19.35;13.25;;;;;;;2.90;77.16;100780.59;1790650;78;20986;-89
2022/11/23 07:28:05;;;;;;;18.82;11.83;;;;;;;2.89;77.43;100781.50;1800069;78;21093;-86
2022/11/23 07:30:34;;;;;;;16.67;11.45;;;;;;;2.87;77.22;100775.51;1812244;78;21339;-87
2022/11/23 07:33:07;;;;;;;18.50;10.90;;;;;;;2.86;77.23;100778.97;1818716;78;21412;-88
2022/11/23 07:35:36;;;;;;;14.73;10.65;;;;;;;2.83;77.42;100777.77;1824065;78;20877;-86
2022/11/23 07:38:05;;;;;;;15.53;10.48;;;;;;;2.82;77.23;100779.93;1814350;78;20891;-86
2022/11/23 07:40:32;;;;;;;15.23;11.57;;;;;;;2.82;77.23;100778.63;1823020;78;21586;-88
2022/11/23 07:43:01;;;;;;;17.17;11.00;;;;;;;2.84;77.55;100778.61;1823593;78;21142;-88
2022/11/23 07:45:29;;;;;;;14.50;11.05;;;;;;;2.88;77.70;100785.41;1797575;78;20915;-86
2022/11/23 07:48:05;;;;;;;18.23;11.78;;;;;;;2.93;77.64;100785.29;1819046;78;20967;-85
2022/11/23 07:50:32;;;;;;;23.90;12.28;;;;;;;2.97;77.76;100789.51;1823625;78;20935;-85
2022/11/23 07:53:01;;;;;;;17.07;12.55;;;;;;;3.01;77.66;100797.16;1794439;78;20884;-88
2022/11/23 07:55:29;;;;;;;16.00;10.85;;;;;;;3.04;77.61;100790.59;1804276;78;21811;-88
2022/11/23 07:57:56;;;;;;;15.48;11.48;;;;;;;3.09;77.80;100787.45;1816618;78;21002;-88
2022/11/23 08:00:24;;;;;;;13.03;10.03;;;;;;;3.12;77.69;100785.23;1824493;78;20943;-87
2022/11/23 08:02:50;;;;;;;11.73;8.85;;;;;;;3.12;77.46;100791.70;1798691;78;20982;-86
2022/11/23 08:05:17;;;;;;;12.25;8.03;;;;;;;3.14;77.27;100787.78;1822454;78;20876;-87
2022/11/23 08:07:44;;;;;;;12.78;8.98;;;;;;;3.17;77.22;100785.95;1808813;78;20907;-87
2022/11/23 08:10:11;;;;;;;13.68;9.38;;;;;;;3.20;77.13;100785.87;1807891;78;20923;-86
2022/11/23 08:12:38;;;;;;;11.25;8.78;;;;;;;3.27;77.06;100787.86;1815034;78;20860;-88
2022/11/23 08:15:06;;;;;;;12.88;9.40;;;;;;;3.32;77.04;100780.34;1798932;78;20864;-85
2022/11/23 08:17:33;;;;;;;12.68;8.93;;;;;;;3.37;76.77;100782.81;1805355;78;20939;-90
2022/11/23 08:20:01;;;;;;;12.90;9.98;;;;;;;3.41;76.61;100790.91;1825082;78;21006;-85
2022/11/23 08:22:28;;;;;;;11.53;9.00;;;;;;;3.47;76.53;100781.67;1798105;78;21061;-88
2022/11/23 08:24:55;;;;;;;13.30;9.73;;;;;;;3.52;76.41;100786.27;1823543;78;20958;-87
2022/11/23 08:27:21;;;;;;;14.30;9.73;;;;;;;3.55;75.95;100784.03;1823235;78;20986;-86
2022/11/23 08:29:51;;;;;;;12.63;10.13;;;;;;;3.55;76.08;100780.15;1823199;78;20978;-87
2022/11/23 08:32:17;;;;;;;15.18;9.88;;;;;;;3.58;76.29;100771.42;1816971;78;21117;-89
2022/11/23 08:34:44;;;;;;;15.23;11.18;;;;;;;3.64;76.40;100772.10;1824974;78;20907;-88
2022/11/23 08:37:10;;;;;;;14.85;10.90;;;;;;;3.70;76.45;100761.56;1823621;78;21532;-87
2022/11/23 08:39:37;;;;;;;15.13;11.33;;;;;;;3.76;76.38;100766.16;1810865;78;20903;-87
2022/11/23 08:42:03;;;;;;;17.23;11.33;;;;;;;3.83;76.37;100764.64;1826577;78;20955;-84
2022/11/23 08:44:30;;;;;;;14.47;11.53;;;;;;;3.88;76.18;100764.05;1820982;78;21218;-86
2022/11/23 08:46:57;;;;;;;14.53;11.43;;;;;;;3.92;76.09;100767.41;1824285;78;21349;-88
2022/11/23 08:49:24;;;;;;;15.13;10.78;;;;;;;3.98;75.96;100772.84;1815798;78;21002;-85
2022/11/23 08:51:51;;;;;;;13.13;10.23;;;;;;;4.02;75.84;100769.27;1825733;78;21022;-89
2022/11/23 08:54:17;;;;;;;15.85;10.95;;;;;;;4.03;75.71;100764.05;1817168;78;21018;-87
2022/11/23 08:56:44;;;;;;;14.98;11.28;;;;;;;4.08;75.76;100768.64;1804945;78;21891;-87
2022/11/23 08:59:11;;;;;;;13.03;10.63;;;;;;;4.09;75.25;100764.28;1811264;78;20978;-87
2022/11/23 09:01:38;;;;;;;14.73;10.30;;;;;;;4.06;75.18;100761.80;1788539;78;20852;-88
2022/11/23 09:04:06;;;;;;;14.98;11.38;;;;;;;4.06;75.04;100761.34;1820834;78;21421;-89
2022/11/23 09:06:35;;;;;;;14.90;10.13;;;;;;;4.07;75.10;100769.55;1806133;78;20883;-88
2022/11/23 09:09:03;;;;;;;12.82;9.75;;;;;;;4.09;74.82;100763.86;1799661;78;21079;-89
2022/11/23 09:11:31;;;;;;;13.18;9.23;;;;;;;4.13;74.88;100765.89;1795919;78;20998;-88
2022/11/23 09:13:58;;;;;;;14.05;9.83;;;;;;;4.12;74.72;100762.46;1813121;78;20906;-87
2022/11/23 09:16:26;;;;;;;16.15;12.30;;;;;;;4.14;74.82;100750.75;1798438;78;20937;-87
2022/11/23 09:18:56;;;;;;;25.23;17.77;;;;;;;4.18;75.01;100757.97;1814825;78;20931;-88
2022/11/23 09:21:28;;;;;;;28.20;23.05;;;;;;;4.21;74.84;100768.27;1818367;78;21295;-88
2022/11/23 09:23:51;;;;;;;17.82;13.60;;;;;;;4.22;74.92;100762.17;1800461;78;21627;-88
2022/11/23 09:26:19;;;;;;;17.48;12.80;;;;;;;4.25;74.86;100768.13;1807751;78;21002;-88
2022/11/23 09:28:45;;;;;;;13.78;11.00;;;;;;;4.30;74.84;100758.89;1794158;78;21433;-88
2022/11/23 09:31:12;;;;;;;15.00;10.15;;;;;;;4.35;74.67;100750.05;1771983;78;21000;-89
2022/11/23 09:33:40;;;;;;;17.65;12.88;;;;;;;4.39;74.36;100754.70;1804075;78;20924;-88
2022/11/23 09:36:07;;;;;;;16.40;9.53;;;;;;;4.40;74.36;100749.89;1812245;78;20856;-87
2022/11/23 09:38:34;;;;;;;12.18;9.30;;;;;;;4.45;74.41;100749.31;1790367;78;20966;-87
2022/11/23 09:41:09;;;;;;;13.83;10.15;;;;;;;4.52;74.24;100748.20;1772117;78;21015;-88
2022/11/23 09:43:59;;;;;;;13.15;9.58;;;;;;;4.56;74.08;100752.41;1744382;80;20980;-89
2022/11/23 09:47:09;;;;;;;13.18;10.10;;;;;;;4.55;73.45;100758.48;1755913;81;21247;-87
2022/11/23 09:50:10;;;;;;;12.33;9.43;;;;;;;4.49;73.54;100760.44;1760714;80;20984;-87
2022/11/23 09:52:41;;;;;;;17.10;13.10;;;;;;;4.49;73.54;100760.00;1669492;84;21027;-88
2022/11/23 09:55:26;;;;;;;16.10;12.05;;;;;;;4.49;73.56;100755.23;1739723;80;20973;-89
2022/11/23 09:57:58;;;;;;;19.95;13.08;;;;;;;4.49;73.46;100765.20;1753482;81;20984;-88
2022/11/23 10:00:26;;;;;;;18.48;13.18;;;;;;;4.48;73.50;100762.64;1760033;80;21225;-88
2022/11/23 10:02:54;;;;;;;14.90;10.05;;;;;;;4.45;73.64;100773.14;1757628;79;21018;-88
2022/11/23 10:05:22;;;;;;;19.67;13.13;;;;;;;4.44;73.74;100764.94;1753725;80;20975;-90
2022/11/23 10:08:37;;;;;;;15.10;11.80;;;;;;;4.39;73.82;100765.09;1756545;80;20946;-89
2022/11/23 10:11:25;;;;;;;12.13;9.68;;;;;;;4.35;73.87;100780.35;1757024;81;21005;-89
2022/11/23 10:14:03;;;;;;;17.50;11.80;;;;;;;4.27;73.73;100770.65;1753234;80;21247;-88
2022/11/23 10:16:40;;;;;;;12.70;10.25;;;;;;;4.22;74.01;100759.58;1713926;81;21667;-89
2022/11/23 10:19:45;;;;;;;15.00;10.82;;;;;;;4.19;74.03;100767.02;1757962;81;20881;-88
2022/11/23 10:22:23;;;;;;;22.17;12.95;;;;;;;4.13;74.28;100760.25;1755652;80;21042;-88
2022/11/23 10:24:52;;;;;;;22.80;14.25;;;;;;;4.07;74.49;100764.36;1751990;81;20955;-86
2022/11/23 10:27:21;;;;;;;17.00;11.45;;;;;;;4.05;74.71;100760.12;1754569;81;21261;-87
2022/11/23 10:29:49;;;;;;;21.60;16.48;;;;;;;4.02;74.95;100764.92;1758813;80;20873;-91
2022/11/23 10:32:48;;;;;;;17.27;12.15;;;;;;;4.00;75.06;100759.38;1749539;81;20996;-89
